sensor_id;sensor_type;location;lat;lon;timestamp;P1;durP1;ratioP1;P2;durP2;ratioP2
29764;SDS011;16667;-33.884;151.182;2022-07-18T00:01:10;1.10;;;0.40;;
29764;SDS011;16667;-33.884;151.182;2022-07-18T00:03:41;2.78;;;0.50;;
29764;SDS011;16667;-33.884;151.182;2022-07-18T00:06:11;1.42;;;0.52;;
29764;SDS011;16667;-33.884;151.182;2022-07-18T00:08:45;2.65;;;0.40;;
29764;SDS011;16667;-33.884;151.182;2022-07-18T00:11:15;1.60;;;0.57;;
29764;SDS011;16667;-33.884;151.182;2022-07-18T00:13:48;5.27;;;0.50;;
29764;SDS011;16667;-33.884;151.182;2022-07-18T00:16:22;2.05;;;0.50;;
29764;SDS011;16667;-33.884;151.182;2022-07-18T00:18:53;2.38;;;0.70;;
29764;SDS011;16667;-33.884;151.182;2022-07-18T00:21:28;2.50;;;0.50;;
29764;SDS011;16667;-33.884;151.182;2022-07-18T00:24:00;0.95;;;0.52;;
29764;SDS011;16667;-33.884;151.182;2022-07-18T00:26:31;1.58;;;0.50;;
29764;SDS011;16667;-33.884;151.182;2022-07-18T00:29:04;1.70;;;0.60;;
29764;SDS011;16667;-33.884;151.182;2022-07-18T00:31:35;1.70;;;0.50;;
29764;SDS011;16667;-33.884;151.182;2022-07-18T00:34:06;2.65;;;0.57;;
29764;SDS011;16667;-33.884;151.182;2022-07-18T00:36:37;2.88;;;0.75;;
29764;SDS011;16667;-33.884;151.182;2022-07-18T00:39:08;3.95;;;0.50;;
29764;SDS011;16667;-33.884;151.182;2022-07-18T00:41:39;3.17;;;0.85;;
29764;SDS011;16667;-33.884;151.182;2022-07-18T00:44:19;2.05;;;0.50;;
29764;SDS011;16667;-33.884;151.182;2022-07-18T00:46:51;1.38;;;0.55;;
29764;SDS011;16667;-33.884;151.182;2022-07-18T00:49:22;7.47;;;0.57;;
29764;SDS011;16667;-33.884;151.182;2022-07-18T00:51:58;1.45;;;0.45;;
29764;SDS011;16667;-33.884;151.182;2022-07-18T00:54:28;1.65;;;0.60;;
29764;SDS011;16667;-33.884;151.182;2022-07-18T00:57:00;4.32;;;0.85;;
29764;SDS011;16667;-33.884;151.182;2022-07-18T00:59:36;2.22;;;0.60;;
29764;SDS011;16667;-33.884;151.182;2022-07-18T01:02:22;1.40;;;0.50;;
29764;SDS011;16667;-33.884;151.182;2022-07-18T01:04:53;1.48;;;0.50;;
29764;SDS011;16667;-33.884;151.182;2022-07-18T01:07:25;1.60;;;0.50;;
29764;SDS011;16667;-33.884;151.182;2022-07-18T01:09:55;3.10;;;0.40;;
29764;SDS011;16667;-33.884;151.182;2022-07-18T01:12:27;3.87;;;0.73;;
29764;SDS011;16667;-33.884;151.182;2022-07-18T01:15:01;1.85;;;0.60;;
29764;SDS011;16667;-33.884;151.182;2022-07-18T01:17:34;1.48;;;0.45;;
29764;SDS011;16667;-33.884;151.182;2022-07-18T01:20:09;3.42;;;0.68;;
29764;SDS011;16667;-33.884;151.182;2022-07-18T01:22:44;3.78;;;0.60;;
29764;SDS011;16667;-33.884;151.182;2022-07-18T01:25:15;2.63;;;0.40;;
29764;SDS011;16667;-33.884;151.182;2022-07-18T01:27:46;2.15;;;0.40;;
29764;SDS011;16667;-33.884;151.182;2022-07-18T01:30:19;5.53;;;0.43;;
29764;SDS011;16667;-33.884;151.182;2022-07-18T01:32:55;3.58;;;0.60;;
29764;SDS011;16667;-33.884;151.182;2022-07-18T01:35:28;1.73;;;0.40;;
29764;SDS011;16667;-33.884;151.182;2022-07-18T01:38:01;3.80;;;0.40;;
29764;SDS011;16667;-33.884;151.182;2022-07-18T01:40:33;4.28;;;0.50;;
29764;SDS011;16667;-33.884;151.182;2022-07-18T01:43:04;2.83;;;0.57;;
29764;SDS011;16667;-33.884;151.182;2022-07-18T01:45:35;2.28;;;0.60;;
29764;SDS011;16667;-33.884;151.182;2022-07-18T01:48:06;2.80;;;0.40;;
29764;SDS011;16667;-33.884;151.182;2022-07-18T01:50:37;0.70;;;0.40;;
29764;SDS011;16667;-33.884;151.182;2022-07-18T01:53:13;1.58;;;0.40;;
29764;SDS011;16667;-33.884;151.182;2022-07-18T01:55:45;3.10;;;0.40;;
29764;SDS011;16667;-33.884;151.182;2022-07-18T01:58:17;3.30;;;0.52;;
29764;SDS011;16667;-33.884;151.182;2022-07-18T02:00:49;0.73;;;0.40;;
29764;SDS011;16667;-33.884;151.182;2022-07-18T02:03:20;1.07;;;0.40;;
29764;SDS011;16667;-33.884;151.182;2022-07-18T02:05:52;1.80;;;0.38;;
29764;SDS011;16667;-33.884;151.182;2022-07-18T02:08:25;1.80;;;0.43;;
29764;SDS011;16667;-33.884;151.182;2022-07-18T02:10:56;1.70;;;0.45;;
29764;SDS011;16667;-33.884;151.182;2022-07-18T02:13:27;1.60;;;0.30;;
29764;SDS011;16667;-33.884;151.182;2022-07-18T02:15:58;1.00;;;0.40;;
29764;SDS011;16667;-33.884;151.182;2022-07-18T02:18:30;1.13;;;0.40;;
29764;SDS011;16667;-33.884;151.182;2022-07-18T02:21:02;1.80;;;0.50;;
29764;SDS011;16667;-33.884;151.182;2022-07-18T02:23:36;0.68;;;0.32;;
29764;SDS011;16667;-33.884;151.182;2022-07-18T02:26:08;5.50;;;0.40;;
29764;SDS011;16667;-33.884;151.182;2022-07-18T02:28:39;1.20;;;0.50;;
29764;SDS011;16667;-33.884;151.182;2022-07-18T02:31:09;0.70;;;0.30;;
29764;SDS011;16667;-33.884;151.182;2022-07-18T02:33:43;0.98;;;0.30;;
29764;SDS011;16667;-33.884;151.182;2022-07-18T02:36:13;1.00;;;0.30;;
29764;SDS011;16667;-33.884;151.182;2022-07-18T02:38:46;4.05;;;0.50;;
29764;SDS011;16667;-33.884;151.182;2022-07-18T02:41:17;1.93;;;0.70;;
29764;SDS011;16667;-33.884;151.182;2022-07-18T02:43:50;3.60;;;0.40;;
29764;SDS011;16667;-33.884;151.182;2022-07-18T02:46:21;0.98;;;0.47;;
29764;SDS011;16667;-33.884;151.182;2022-07-18T02:48:52;1.35;;;0.60;;
29764;SDS011;16667;-33.884;151.182;2022-07-18T02:51:23;2.42;;;0.50;;
29764;SDS011;16667;-33.884;151.182;2022-07-18T02:53:58;2.17;;;0.50;;
29764;SDS011;16667;-33.884;151.182;2022-07-18T02:56:30;2.33;;;0.40;;
29764;SDS011;16667;-33.884;151.182;2022-07-18T02:59:00;1.33;;;0.40;;
29764;SDS011;16667;-33.884;151.182;2022-07-18T03:01:31;0.88;;;0.35;;
29764;SDS011;16667;-33.884;151.182;2022-07-18T03:04:02;1.85;;;0.60;;
29764;SDS011;16667;-33.884;151.182;2022-07-18T03:06:33;2.55;;;0.30;;
29764;SDS011;16667;-33.884;151.182;2022-07-18T03:09:06;0.82;;;0.40;;
29764;SDS011;16667;-33.884;151.182;2022-07-18T03:11:36;2.00;;;0.60;;
29764;SDS011;16667;-33.884;151.182;2022-07-18T03:14:07;5.20;;;0.80;;
29764;SDS011;16667;-33.884;151.182;2022-07-18T03:16:38;5.25;;;0.55;;
29764;SDS011;16667;-33.884;151.182;2022-07-18T03:19:10;2.20;;;0.40;;
29764;SDS011;16667;-33.884;151.182;2022-07-18T03:21:41;2.67;;;0.65;;
29764;SDS011;16667;-33.884;151.182;2022-07-18T03:24:14;1.60;;;0.40;;
29764;SDS011;16667;-33.884;151.182;2022-07-18T03:26:45;1.40;;;0.35;;
29764;SDS011;16667;-33.884;151.182;2022-07-18T03:29:16;1.83;;;0.50;;
29764;SDS011;16667;-33.884;151.182;2022-07-18T03:31:50;1.20;;;0.43;;
29764;SDS011;16667;-33.884;151.182;2022-07-18T03:34:35;2.45;;;0.50;;
29764;SDS011;16667;-33.884;151.182;2022-07-18T03:37:08;1.50;;;0.50;;
29764;SDS011;16667;-33.884;151.182;2022-07-18T03:39:41;2.15;;;0.60;;
29764;SDS011;16667;-33.884;151.182;2022-07-18T03:42:12;1.20;;;0.40;;
29764;SDS011;16667;-33.884;151.182;2022-07-18T03:44:43;1.77;;;0.70;;
29764;SDS011;16667;-33.884;151.182;2022-07-18T03:47:16;3.22;;;0.60;;
29764;SDS011;16667;-33.884;151.182;2022-07-18T03:49:47;2.45;;;0.63;;
29764;SDS011;16667;-33.884;151.182;2022-07-18T03:52:18;1.65;;;0.65;;
29764;SDS011;16667;-33.884;151.182;2022-07-18T03:54:50;4.68;;;0.88;;
29764;SDS011;16667;-33.884;151.182;2022-07-18T03:57:21;3.03;;;0.70;;
29764;SDS011;16667;-33.884;151.182;2022-07-18T03:59:52;2.70;;;0.75;;
29764;SDS011;16667;-33.884;151.182;2022-07-18T04:02:23;1.90;;;0.68;;
29764;SDS011;16667;-33.884;151.182;2022-07-18T04:04:54;5.20;;;0.60;;
29764;SDS011;16667;-33.884;151.182;2022-07-18T04:07:26;3.35;;;0.68;;
29764;SDS011;16667;-33.884;151.182;2022-07-18T04:09:58;3.03;;;0.60;;
29764;SDS011;16667;-33.884;151.182;2022-07-18T04:12:29;3.90;;;0.85;;
29764;SDS011;16667;-33.884;151.182;2022-07-18T04:15:00;5.07;;;0.80;;
29764;SDS011;16667;-33.884;151.182;2022-07-18T04:17:31;4.40;;;1.35;;
29764;SDS011;16667;-33.884;151.182;2022-07-18T04:20:02;2.08;;;0.60;;
29764;SDS011;16667;-33.884;151.182;2022-07-18T04:22:43;3.92;;;0.82;;
29764;SDS011;16667;-33.884;151.182;2022-07-18T04:25:17;2.72;;;0.85;;
29764;SDS011;16667;-33.884;151.182;2022-07-18T04:27:50;2.50;;;0.90;;
29764;SDS011;16667;-33.884;151.182;2022-07-18T04:30:21;7.57;;;3.85;;
29764;SDS011;16667;-33.884;151.182;2022-07-18T04:32:54;4.93;;;1.30;;
29764;SDS011;16667;-33.884;151.182;2022-07-18T04:35:28;2.72;;;0.60;;
29764;SDS011;16667;-33.884;151.182;2022-07-18T04:38:01;3.20;;;0.70;;
29764;SDS011;16667;-33.884;151.182;2022-07-18T04:40:36;3.67;;;0.60;;
29764;SDS011;16667;-33.884;151.182;2022-07-18T04:43:07;1.15;;;0.50;;
29764;SDS011;16667;-33.884;151.182;2022-07-18T04:45:40;3.58;;;0.70;;
29764;SDS011;16667;-33.884;151.182;2022-07-18T04:48:11;4.93;;;1.00;;
29764;SDS011;16667;-33.884;151.182;2022-07-18T04:50:43;4.80;;;0.60;;
29764;SDS011;16667;-33.884;151.182;2022-07-18T04:53:13;3.83;;;0.70;;
29764;SDS011;16667;-33.884;151.182;2022-07-18T04:55:49;2.75;;;0.65;;
29764;SDS011;16667;-33.884;151.182;2022-07-18T04:58:23;1.30;;;0.50;;
29764;SDS011;16667;-33.884;151.182;2022-07-18T05:00:53;1.17;;;0.50;;
29764;SDS011;16667;-33.884;151.182;2022-07-18T05:03:25;2.20;;;0.65;;
29764;SDS011;16667;-33.884;151.182;2022-07-18T05:05:55;2.15;;;0.50;;
29764;SDS011;16667;-33.884;151.182;2022-07-18T05:08:26;2.03;;;0.60;;
29764;SDS011;16667;-33.884;151.182;2022-07-18T05:10:59;2.53;;;0.60;;
29764;SDS011;16667;-33.884;151.182;2022-07-18T05:13:30;1.67;;;0.63;;
29764;SDS011;16667;-33.884;151.182;2022-07-18T05:16:02;1.55;;;0.47;;
29764;SDS011;16667;-33.884;151.182;2022-07-18T05:18:33;2.05;;;0.40;;
29764;SDS011;16667;-33.884;151.182;2022-07-18T05:21:03;2.40;;;0.50;;
29764;SDS011;16667;-33.884;151.182;2022-07-18T05:23:34;1.95;;;0.52;;
29764;SDS011;16667;-33.884;151.182;2022-07-18T05:26:09;2.45;;;0.40;;
29764;SDS011;16667;-33.884;151.182;2022-07-18T05:28:44;2.85;;;0.55;;
29764;SDS011;16667;-33.884;151.182;2022-07-18T05:31:19;2.95;;;0.40;;
29764;SDS011;16667;-33.884;151.182;2022-07-18T05:33:50;1.88;;;0.65;;
29764;SDS011;16667;-33.884;151.182;2022-07-18T05:36:20;0.90;;;0.60;;
29764;SDS011;16667;-33.884;151.182;2022-07-18T05:38:51;2.60;;;0.40;;
29764;SDS011;16667;-33.884;151.182;2022-07-18T05:41:24;3.00;;;0.60;;
29764;SDS011;16667;-33.884;151.182;2022-07-18T05:43:54;1.83;;;0.63;;
29764;SDS011;16667;-33.884;151.182;2022-07-18T05:46:25;3.73;;;0.60;;
29764;SDS011;16667;-33.884;151.182;2022-07-18T05:48:56;4.20;;;0.80;;
29764;SDS011;16667;-33.884;151.182;2022-07-18T05:51:27;4.00;;;0.82;;
29764;SDS011;16667;-33.884;151.182;2022-07-18T05:53:57;2.72;;;0.60;;
29764;SDS011;16667;-33.884;151.182;2022-07-18T05:56:30;3.65;;;0.77;;
29764;SDS011;16667;-33.884;151.182;2022-07-18T05:59:01;4.07;;;0.53;;
29764;SDS011;16667;-33.884;151.182;2022-07-18T06:01:32;3.95;;;0.73;;
29764;SDS011;16667;-33.884;151.182;2022-07-18T06:04:03;2.10;;;0.63;;
29764;SDS011;16667;-33.884;151.182;2022-07-18T06:06:34;2.83;;;0.55;;
29764;SDS011;16667;-33.884;151.182;2022-07-18T06:09:08;1.25;;;0.50;;
29764;SDS011;16667;-33.884;151.182;2022-07-18T06:11:41;1.75;;;0.52;;
29764;SDS011;16667;-33.884;151.182;2022-07-18T06:14:12;3.03;;;0.50;;
29764;SDS011;16667;-33.884;151.182;2022-07-18T06:16:43;1.75;;;0.50;;
29764;SDS011;16667;-33.884;151.182;2022-07-18T06:19:13;1.60;;;0.50;;
29764;SDS011;16667;-33.884;151.182;2022-07-18T06:21:46;3.15;;;0.68;;
29764;SDS011;16667;-33.884;151.182;2022-07-18T06:24:17;2.85;;;0.50;;
29764;SDS011;16667;-33.884;151.182;2022-07-18T06:26:49;5.50;;;0.60;;
29764;SDS011;16667;-33.884;151.182;2022-07-18T06:29:20;3.10;;;0.50;;
29764;SDS011;16667;-33.884;151.182;2022-07-18T06:31:50;7.32;;;0.80;;
29764;SDS011;16667;-33.884;151.182;2022-07-18T06:34:21;3.65;;;0.60;;
29764;SDS011;16667;-33.884;151.182;2022-07-18T06:36:52;2.05;;;0.50;;
29764;SDS011;16667;-33.884;151.182;2022-07-18T06:39:23;3.22;;;0.77;;
29764;SDS011;16667;-33.884;151.182;2022-07-18T06:41:55;4.15;;;0.80;;
29764;SDS011;16667;-33.884;151.182;2022-07-18T06:44:26;2.65;;;0.65;;
29764;SDS011;16667;-33.884;151.182;2022-07-18T06:46:57;2.25;;;0.70;;
29764;SDS011;16667;-33.884;151.182;2022-07-18T06:49:30;2.45;;;0.73;;
29764;SDS011;16667;-33.884;151.182;2022-07-18T06:52:01;2.15;;;0.60;;
29764;SDS011;16667;-33.884;151.182;2022-07-18T06:54:32;2.05;;;0.80;;
29764;SDS011;16667;-33.884;151.182;2022-07-18T06:57:10;1.17;;;0.50;;
29764;SDS011;16667;-33.884;151.182;2022-07-18T06:59:40;2.70;;;0.88;;
29764;SDS011;16667;-33.884;151.182;2022-07-18T07:02:20;1.90;;;0.70;;
29764;SDS011;16667;-33.884;151.182;2022-07-18T07:04:53;4.22;;;0.80;;
29764;SDS011;16667;-33.884;151.182;2022-07-18T07:07:25;2.30;;;1.02;;
29764;SDS011;16667;-33.884;151.182;2022-07-18T07:09:57;4.83;;;0.90;;
29764;SDS011;16667;-33.884;151.182;2022-07-18T07:12:34;3.20;;;0.65;;
29764;SDS011;16667;-33.884;151.182;2022-07-18T07:15:11;1.13;;;0.60;;
29764;SDS011;16667;-33.884;151.182;2022-07-18T07:17:42;1.75;;;0.70;;
29764;SDS011;16667;-33.884;151.182;2022-07-18T07:20:13;2.50;;;0.70;;
29764;SDS011;16667;-33.884;151.182;2022-07-18T07:22:47;3.17;;;1.02;;
29764;SDS011;16667;-33.884;151.182;2022-07-18T07:25:19;4.65;;;1.20;;
29764;SDS011;16667;-33.884;151.182;2022-07-18T07:27:54;3.73;;;1.10;;
29764;SDS011;16667;-33.884;151.182;2022-07-18T07:30:29;2.75;;;1.00;;
29764;SDS011;16667;-33.884;151.182;2022-07-18T07:33:00;4.05;;;1.25;;
29764;SDS011;16667;-33.884;151.182;2022-07-18T07:35:32;3.55;;;1.00;;
29764;SDS011;16667;-33.884;151.182;2022-07-18T07:38:03;5.97;;;1.10;;
29764;SDS011;16667;-33.884;151.182;2022-07-18T07:40:44;4.55;;;1.30;;
29764;SDS011;16667;-33.884;151.182;2022-07-18T07:43:20;4.25;;;1.20;;
29764;SDS011;16667;-33.884;151.182;2022-07-18T07:45:53;4.68;;;1.20;;
29764;SDS011;16667;-33.884;151.182;2022-07-18T07:48:29;7.93;;;1.20;;
29764;SDS011;16667;-33.884;151.182;2022-07-18T07:51:01;3.63;;;1.30;;
29764;SDS011;16667;-33.884;151.182;2022-07-18T07:53:32;3.47;;;1.30;;
29764;SDS011;16667;-33.884;151.182;2022-07-18T07:56:08;2.80;;;1.30;;
29764;SDS011;16667;-33.884;151.182;2022-07-18T07:58:48;3.70;;;1.40;;
29764;SDS011;16667;-33.884;151.182;2022-07-18T08:01:20;6.53;;;1.73;;
29764;SDS011;16667;-33.884;151.182;2022-07-18T08:03:53;5.28;;;1.10;;
29764;SDS011;16667;-33.884;151.182;2022-07-18T08:06:23;3.22;;;1.48;;
29764;SDS011;16667;-33.884;151.182;2022-07-18T08:08:55;3.00;;;1.30;;
29764;SDS011;16667;-33.884;151.182;2022-07-18T08:11:29;2.90;;;1.38;;
29764;SDS011;16667;-33.884;151.182;2022-07-18T08:14:02;6.97;;;2.20;;
29764;SDS011;16667;-33.884;151.182;2022-07-18T08:16:36;4.25;;;1.80;;
29764;SDS011;16667;-33.884;151.182;2022-07-18T08:19:10;5.13;;;1.60;;
29764;SDS011;16667;-33.884;151.182;2022-07-18T08:21:42;7.82;;;1.83;;
29764;SDS011;16667;-33.884;151.182;2022-07-18T08:24:13;4.35;;;1.70;;
29764;SDS011;16667;-33.884;151.182;2022-07-18T08:26:47;4.55;;;1.83;;
29764;SDS011;16667;-33.884;151.182;2022-07-18T08:29:21;4.38;;;1.60;;
29764;SDS011;16667;-33.884;151.182;2022-07-18T08:31:55;3.80;;;1.92;;
29764;SDS011;16667;-33.884;151.182;2022-07-18T08:34:27;7.05;;;1.90;;
29764;SDS011;16667;-33.884;151.182;2022-07-18T08:36:58;6.03;;;2.47;;
29764;SDS011;16667;-33.884;151.182;2022-07-18T08:39:30;6.13;;;2.40;;
29764;SDS011;16667;-33.884;151.182;2022-07-18T08:42:05;5.28;;;1.90;;
29764;SDS011;16667;-33.884;151.182;2022-07-18T08:44:40;3.88;;;1.88;;
29764;SDS011;16667;-33.884;151.182;2022-07-18T08:47:11;6.15;;;2.40;;
29764;SDS011;16667;-33.884;151.182;2022-07-18T08:49:45;8.40;;;2.80;;
29764;SDS011;16667;-33.884;151.182;2022-07-18T08:52:17;7.20;;;2.67;;
29764;SDS011;16667;-33.884;151.182;2022-07-18T08:54:50;11.80;;;3.10;;
29764;SDS011;16667;-33.884;151.182;2022-07-18T08:57:21;6.82;;;2.78;;
29764;SDS011;16667;-33.884;151.182;2022-07-18T08:59:57;5.35;;;2.15;;
29764;SDS011;16667;-33.884;151.182;2022-07-18T09:02:29;5.93;;;1.90;;
29764;SDS011;16667;-33.884;151.182;2022-07-18T09:05:03;3.30;;;1.80;;
29764;SDS011;16667;-33.884;151.182;2022-07-18T09:07:45;4.50;;;1.80;;
29764;SDS011;16667;-33.884;151.182;2022-07-18T09:10:16;3.05;;;1.60;;
29764;SDS011;16667;-33.884;151.182;2022-07-18T09:12:55;4.82;;;2.10;;
29764;SDS011;16667;-33.884;151.182;2022-07-18T09:15:28;6.63;;;2.00;;
29764;SDS011;16667;-33.884;151.182;2022-07-18T09:17:59;3.58;;;1.63;;
29764;SDS011;16667;-33.884;151.182;2022-07-18T09:20:30;4.63;;;1.50;;
29764;SDS011;16667;-33.884;151.182;2022-07-18T09:23:09;3.40;;;1.50;;
29764;SDS011;16667;-33.884;151.182;2022-07-18T09:25:46;3.70;;;1.38;;
29764;SDS011;16667;-33.884;151.182;2022-07-18T09:28:18;4.87;;;1.70;;
29764;SDS011;16667;-33.884;151.182;2022-07-18T09:30:53;5.40;;;2.25;;
29764;SDS011;16667;-33.884;151.182;2022-07-18T09:33:24;5.20;;;2.10;;
29764;SDS011;16667;-33.884;151.182;2022-07-18T09:35:55;2.70;;;1.40;;
29764;SDS011;16667;-33.884;151.182;2022-07-18T09:38:28;4.55;;;1.80;;
29764;SDS011;16667;-33.884;151.182;2022-07-18T09:41:01;3.33;;;1.48;;
29764;SDS011;16667;-33.884;151.182;2022-07-18T09:43:39;3.05;;;1.30;;
29764;SDS011;16667;-33.884;151.182;2022-07-18T09:46:13;8.00;;;1.67;;
29764;SDS011;16667;-33.884;151.182;2022-07-18T09:48:44;2.55;;;1.42;;
29764;SDS011;16667;-33.884;151.182;2022-07-18T09:51:15;4.73;;;1.57;;
29764;SDS011;16667;-33.884;151.182;2022-07-18T09:53:51;2.60;;;1.48;;
29764;SDS011;16667;-33.884;151.182;2022-07-18T09:56:26;4.30;;;1.50;;
29764;SDS011;16667;-33.884;151.182;2022-07-18T09:59:08;4.47;;;2.25;;
29764;SDS011;16667;-33.884;151.182;2022-07-18T10:02:00;5.13;;;1.67;;
29764;SDS011;16667;-33.884;151.182;2022-07-18T10:04:31;5.07;;;1.95;;
29764;SDS011;16667;-33.884;151.182;2022-07-18T10:07:05;5.17;;;2.20;;
29764;SDS011;16667;-33.884;151.182;2022-07-18T10:09:38;5.93;;;1.70;;
29764;SDS011;16667;-33.884;151.182;2022-07-18T10:12:10;4.10;;;2.38;;
29764;SDS011;16667;-33.884;151.182;2022-07-18T10:14:42;4.40;;;2.00;;
29764;SDS011;16667;-33.884;151.182;2022-07-18T10:17:18;8.65;;;3.78;;
29764;SDS011;16667;-33.884;151.182;2022-07-18T10:19:50;8.75;;;4.60;;
29764;SDS011;16667;-33.884;151.182;2022-07-18T10:22:28;20.55;;;10.57;;
29764;SDS011;16667;-33.884;151.182;2022-07-18T10:25:03;11.95;;;6.35;;
29764;SDS011;16667;-33.884;151.182;2022-07-18T10:30:33;13.50;;;4.30;;
29764;SDS011;16667;-33.884;151.182;2022-07-18T10:36:21;8.37;;;2.53;;
29764;SDS011;16667;-33.884;151.182;2022-07-18T10:39:05;6.80;;;3.47;;
29764;SDS011;16667;-33.884;151.182;2022-07-18T10:44:41;7.40;;;3.17;;
29764;SDS011;16667;-33.884;151.182;2022-07-18T10:47:15;7.38;;;3.00;;
29764;SDS011;16667;-33.884;151.182;2022-07-18T10:50:09;3.25;;;1.92;;
29764;SDS011;16667;-33.884;151.182;2022-07-18T10:53:00;5.60;;;2.00;;
29764;SDS011;16667;-33.884;151.182;2022-07-18T10:55:34;4.80;;;2.50;;
29764;SDS011;16667;-33.884;151.182;2022-07-18T10:58:16;4.70;;;2.05;;
29764;SDS011;16667;-33.884;151.182;2022-07-18T11:00:52;9.30;;;3.50;;
29764;SDS011;16667;-33.884;151.182;2022-07-18T11:03:31;11.02;;;4.07;;
29764;SDS011;16667;-33.884;151.182;2022-07-18T11:06:05;5.15;;;2.22;;
29764;SDS011;16667;-33.884;151.182;2022-07-18T11:08:41;5.23;;;2.30;;
29764;SDS011;16667;-33.884;151.182;2022-07-18T11:11:12;6.97;;;3.15;;
29764;SDS011;16667;-33.884;151.182;2022-07-18T11:13:44;7.25;;;2.67;;
29764;SDS011;16667;-33.884;151.182;2022-07-18T11:16:20;5.30;;;2.17;;
29764;SDS011;16667;-33.884;151.182;2022-07-18T11:21:58;5.22;;;2.30;;
29764;SDS011;16667;-33.884;151.182;2022-07-18T11:24:32;6.50;;;2.22;;
29764;SDS011;16667;-33.884;151.182;2022-07-18T11:27:06;5.60;;;2.33;;
29764;SDS011;16667;-33.884;151.182;2022-07-18T11:29:40;8.45;;;3.20;;
29764;SDS011;16667;-33.884;151.182;2022-07-18T11:32:12;6.18;;;2.40;;
29764;SDS011;16667;-33.884;151.182;2022-07-18T11:34:49;4.18;;;1.95;;
29764;SDS011;16667;-33.884;151.182;2022-07-18T11:37:20;4.38;;;2.17;;
29764;SDS011;16667;-33.884;151.182;2022-07-18T11:39:53;6.57;;;2.30;;
29764;SDS011;16667;-33.884;151.182;2022-07-18T11:42:42;6.22;;;2.63;;
29764;SDS011;16667;-33.884;151.182;2022-07-18T11:45:13;7.13;;;2.80;;
29764;SDS011;16667;-33.884;151.182;2022-07-18T11:47:48;5.03;;;2.20;;
29764;SDS011;16667;-33.884;151.182;2022-07-18T11:50:34;5.88;;;2.25;;
29764;SDS011;16667;-33.884;151.182;2022-07-18T11:53:07;8.40;;;2.40;;
29764;SDS011;16667;-33.884;151.182;2022-07-18T11:55:40;5.03;;;2.60;;
29764;SDS011;16667;-33.884;151.182;2022-07-18T11:58:11;6.63;;;2.22;;
29764;SDS011;16667;-33.884;151.182;2022-07-18T12:00:42;4.85;;;2.10;;
29764;SDS011;16667;-33.884;151.182;2022-07-18T12:03:14;5.05;;;1.83;;
29764;SDS011;16667;-33.884;151.182;2022-07-18T12:05:49;5.63;;;2.00;;
29764;SDS011;16667;-33.884;151.182;2022-07-18T12:08:28;6.05;;;2.13;;
29764;SDS011;16667;-33.884;151.182;2022-07-18T12:11:10;4.45;;;2.25;;
29764;SDS011;16667;-33.884;151.182;2022-07-18T12:13:44;5.00;;;2.13;;
29764;SDS011;16667;-33.884;151.182;2022-07-18T12:19:10;7.00;;;2.10;;
29764;SDS011;16667;-33.884;151.182;2022-07-18T12:21:42;4.85;;;2.10;;
29764;SDS011;16667;-33.884;151.182;2022-07-18T12:24:26;6.38;;;2.20;;
29764;SDS011;16667;-33.884;151.182;2022-07-18T12:27:22;4.85;;;2.00;;
29764;SDS011;16667;-33.884;151.182;2022-07-18T12:32:41;5.03;;;2.10;;
29764;SDS011;16667;-33.884;151.182;2022-07-18T12:35:18;5.20;;;2.10;;
29764;SDS011;16667;-33.884;151.182;2022-07-18T12:37:56;5.38;;;1.98;;
29764;SDS011;16667;-33.884;151.182;2022-07-18T12:40:39;6.35;;;2.10;;
29764;SDS011;16667;-33.884;151.182;2022-07-18T12:43:23;5.13;;;2.30;;
29764;SDS011;16667;-33.884;151.182;2022-07-18T12:45:55;4.73;;;2.13;;
29764;SDS011;16667;-33.884;151.182;2022-07-18T12:48:27;6.43;;;2.80;;
29764;SDS011;16667;-33.884;151.182;2022-07-18T12:51:07;4.05;;;2.10;;
29764;SDS011;16667;-33.884;151.182;2022-07-18T12:53:40;5.55;;;2.30;;
29764;SDS011;16667;-33.884;151.182;2022-07-18T12:56:16;5.07;;;1.93;;
29764;SDS011;16667;-33.884;151.182;2022-07-18T12:58:50;4.90;;;2.37;;
29764;SDS011;16667;-33.884;151.182;2022-07-18T13:01:37;5.50;;;2.10;;
29764;SDS011;16667;-33.884;151.182;2022-07-18T13:04:10;5.88;;;2.58;;
29764;SDS011;16667;-33.884;151.182;2022-07-18T13:06:41;3.83;;;1.98;;
29764;SDS011;16667;-33.884;151.182;2022-07-18T13:09:13;3.53;;;1.90;;
29764;SDS011;16667;-33.884;151.182;2022-07-18T13:11:44;4.18;;;1.98;;
29764;SDS011;16667;-33.884;151.182;2022-07-18T13:14:18;5.07;;;1.70;;
29764;SDS011;16667;-33.884;151.182;2022-07-18T13:16:52;3.72;;;1.70;;
29764;SDS011;16667;-33.884;151.182;2022-07-18T13:19:23;3.88;;;1.77;;
29764;SDS011;16667;-33.884;151.182;2022-07-18T13:21:54;5.38;;;1.75;;
29764;SDS011;16667;-33.884;151.182;2022-07-18T13:24:27;5.70;;;2.03;;
29764;SDS011;16667;-33.884;151.182;2022-07-18T13:26:58;3.22;;;1.60;;
29764;SDS011;16667;-33.884;151.182;2022-07-18T13:29:33;4.82;;;1.88;;
29764;SDS011;16667;-33.884;151.182;2022-07-18T13:32:04;4.25;;;1.92;;
29764;SDS011;16667;-33.884;151.182;2022-07-18T13:34:37;4.43;;;1.95;;
29764;SDS011;16667;-33.884;151.182;2022-07-18T13:37:09;3.58;;;1.50;;
29764;SDS011;16667;-33.884;151.182;2022-07-18T13:39:40;3.88;;;1.48;;
29764;SDS011;16667;-33.884;151.182;2022-07-18T13:42:11;4.95;;;1.65;;
29764;SDS011;16667;-33.884;151.182;2022-07-18T13:44:45;3.58;;;1.50;;
29764;SDS011;16667;-33.884;151.182;2022-07-18T13:47:16;7.25;;;1.90;;
29764;SDS011;16667;-33.884;151.182;2022-07-18T13:49:48;6.28;;;2.00;;
29764;SDS011;16667;-33.884;151.182;2022-07-18T13:52:19;4.68;;;2.10;;
29764;SDS011;16667;-33.884;151.182;2022-07-18T13:54:50;6.65;;;1.98;;
29764;SDS011;16667;-33.884;151.182;2022-07-18T13:57:21;3.30;;;1.65;;
29764;SDS011;16667;-33.884;151.182;2022-07-18T14:00:02;4.87;;;1.90;;
29764;SDS011;16667;-33.884;151.182;2022-07-18T14:02:34;4.90;;;2.00;;
29764;SDS011;16667;-33.884;151.182;2022-07-18T14:05:05;5.55;;;1.75;;
29764;SDS011;16667;-33.884;151.182;2022-07-18T14:07:36;8.50;;;1.85;;
29764;SDS011;16667;-33.884;151.182;2022-07-18T14:10:14;5.23;;;1.57;;
29764;SDS011;16667;-33.884;151.182;2022-07-18T14:12:49;6.63;;;1.88;;
29764;SDS011;16667;-33.884;151.182;2022-07-18T14:15:23;4.75;;;1.30;;
29764;SDS011;16667;-33.884;151.182;2022-07-18T14:17:57;6.13;;;1.30;;
29764;SDS011;16667;-33.884;151.182;2022-07-18T14:20:29;3.50;;;1.40;;
29764;SDS011;16667;-33.884;151.182;2022-07-18T14:23:00;4.55;;;1.30;;
29764;SDS011;16667;-33.884;151.182;2022-07-18T14:25:35;3.72;;;1.13;;
29764;SDS011;16667;-33.884;151.182;2022-07-18T14:28:06;2.83;;;1.35;;
29764;SDS011;16667;-33.884;151.182;2022-07-18T14:30:40;5.32;;;1.45;;
29764;SDS011;16667;-33.884;151.182;2022-07-18T14:33:11;5.35;;;1.40;;
29764;SDS011;16667;-33.884;151.182;2022-07-18T14:35:44;4.85;;;1.35;;
29764;SDS011;16667;-33.884;151.182;2022-07-18T14:38:15;3.50;;;1.30;;
29764;SDS011;16667;-33.884;151.182;2022-07-18T14:40:47;4.85;;;1.27;;
29764;SDS011;16667;-33.884;151.182;2022-07-18T14:43:20;6.60;;;0.90;;
29764;SDS011;16667;-33.884;151.182;2022-07-18T14:45:54;5.40;;;1.38;;
29764;SDS011;16667;-33.884;151.182;2022-07-18T14:48:25;6.00;;;1.23;;
29764;SDS011;16667;-33.884;151.182;2022-07-18T14:50:56;4.90;;;1.38;;
29764;SDS011;16667;-33.884;151.182;2022-07-18T14:53:30;4.82;;;1.10;;
29764;SDS011;16667;-33.884;151.182;2022-07-18T14:56:02;5.43;;;1.30;;
29764;SDS011;16667;-33.884;151.182;2022-07-18T14:58:33;5.60;;;1.30;;
29764;SDS011;16667;-33.884;151.182;2022-07-18T15:01:06;4.95;;;1.10;;